createdAt,value
2023-02-09T00:00:21.314Z,100305.78
2023-02-09T00:02:50.515Z,100314.44
2023-02-09T00:05:18.440Z,100317.78
2023-02-09T00:07:46.200Z,100314.47
2023-02-09T00:10:14.022Z,100311.72
2023-02-09T00:13:01.739Z,100307.53
2023-02-09T00:15:29.519Z,100305.84
2023-02-09T00:17:58.714Z,100304.94
2023-02-09T00:20:26.449Z,100301.41
2023-02-09T00:22:54.185Z,100298.84
2023-02-09T00:25:21.923Z,100298.00
2023-02-09T00:27:52.802Z,100295.38
2023-02-09T00:30:21.036Z,100298.88
2023-02-09T00:32:48.795Z,100293.69
2023-02-09T00:35:18.291Z,100294.56
2023-02-09T00:37:46.089Z,100299.63
2023-02-09T00:40:14.325Z,100292.75
2023-02-09T00:42:42.083Z,100283.31
2023-02-09T00:45:10.786Z,100297.16
2023-02-09T00:47:38.574Z,100281.53
2023-02-09T00:50:10.176Z,100284.75
2023-02-09T00:52:39.342Z,100281.44
2023-02-09T00:55:07.711Z,100281.50
2023-02-09T00:57:36.021Z,100284.00
2023-02-09T01:00:04.570Z,100285.81
2023-02-09T01:02:32.615Z,100283.22
2023-02-09T01:05:00.713Z,100273.66
2023-02-09T01:07:28.504Z,100283.16
2023-02-09T01:09:57.796Z,100276.28
2023-02-09T01:12:25.585Z,100278.84
2023-02-09T01:14:55.434Z,100282.25
2023-02-09T01:17:23.453Z,100272.69
2023-02-09T01:19:52.912Z,100276.91
2023-02-09T01:22:20.992Z,100282.94
2023-02-09T01:24:50.274Z,100279.31
2023-02-09T01:27:19.893Z,100277.66
2023-02-09T01:29:47.679Z,100276.88
2023-02-09T01:32:15.600Z,100262.97
2023-02-09T01:34:45.176Z,100268.25
2023-02-09T01:37:12.983Z,100264.75
2023-02-09T01:39:41.054Z,100257.88
2023-02-09T01:42:14.738Z,100255.41
2023-02-09T01:45:15.595Z,100254.53
2023-02-09T01:47:47.141Z,100252.72
2023-02-09T01:50:15.777Z,100254.44
2023-02-09T01:52:45.940Z,100243.25
2023-02-09T01:55:18.039Z,100247.53
2023-02-09T01:57:50.107Z,100240.75
2023-02-09T02:00:20.876Z,100244.75
2023-02-09T02:02:53.365Z,100243.34
2023-02-09T02:05:22.330Z,100236.41
2023-02-09T02:07:57.564Z,100240.81
2023-02-09T02:10:26.105Z,100238.25
2023-02-09T02:12:54.989Z,100230.75
2023-02-09T02:15:28.222Z,100234.50
2023-02-09T02:18:11.355Z,100237.00
2023-02-09T02:21:19.469Z,100236.91
2023-02-09T02:24:03.644Z,100247.25
2023-02-09T02:26:53.782Z,100242.25
2023-02-09T02:29:52.101Z,100236.28
2023-02-09T02:32:47.854Z,100243.22
2023-02-09T02:35:24.644Z,100249.66
2023-02-09T02:38:02.063Z,100246.66
2023-02-09T02:40:42.100Z,100250.00
2023-02-09T02:43:21.657Z,100247.97
2023-02-09T02:45:53.888Z,100243.00
2023-02-09T02:48:33.517Z,100251.78
2023-02-09T02:51:05.259Z,100247.75
2023-02-09T02:53:36.381Z,100248.00
2023-02-09T02:56:09.763Z,100253.22
2023-02-09T02:58:41.431Z,100247.97
2023-02-09T03:01:11.944Z,100248.97
2023-02-09T03:03:44.176Z,100239.56
2023-02-09T03:06:12.850Z,100234.28
2023-02-09T03:08:48.564Z,100236.84
2023-02-09T03:11:17.537Z,100235.78
2023-02-09T03:13:59.277Z,100240.06
2023-02-09T03:20:35.593Z,100254.28
2023-02-09T03:23:05.668Z,100257.78
2023-02-09T03:25:38.642Z,100252.66
2023-02-09T03:28:09.418Z,100248.78
2023-02-09T03:30:42.062Z,100256.63
2023-02-09T03:33:21.002Z,100250.63
2023-02-09T03:35:53.244Z,100247.19
2023-02-09T03:38:21.157Z,100250.56
2023-02-09T03:40:48.937Z,100236.78
2023-02-09T03:43:16.821Z,100233.03
2023-02-09T03:45:44.543Z,100226.94
2023-02-09T03:48:12.352Z,100238.19
2023-02-09T03:50:40.117Z,100234.72
2023-02-09T03:53:09.246Z,100236.63
2023-02-09T03:55:37.158Z,100237.59
2023-02-09T03:58:05.026Z,100243.63
2023-02-09T04:00:32.783Z,100238.31
2023-02-09T04:03:00.545Z,100232.22
2023-02-09T04:05:28.244Z,100242.69
2023-02-09T04:07:55.985Z,100240.09
2023-02-09T04:10:28.426Z,100246.19
2023-02-09T04:12:56.149Z,100249.59
2023-02-09T04:15:23.836Z,100253.00
2023-02-09T04:17:51.629Z,100257.34
2023-02-09T04:20:19.481Z,100253.53
2023-02-09T04:22:47.222Z,100253.94
2023-02-09T04:25:15.040Z,100250.00
2023-02-09T04:27:44.141Z,100252.50
2023-02-09T04:30:13.134Z,100266.47
2023-02-09T04:32:40.906Z,100268.38
2023-02-09T04:35:09.062Z,100270.13
2023-02-09T04:37:36.873Z,100272.88
2023-02-09T04:40:07.601Z,100272.06
2023-02-09T04:42:35.574Z,100273.72
2023-02-09T04:45:04.732Z,100268.59
2023-02-09T04:47:32.897Z,100270.16
2023-02-09T04:50:00.785Z,100269.25
2023-02-09T04:52:28.487Z,100273.44
2023-02-09T04:54:56.265Z,100262.44
2023-02-09T04:57:41.475Z,100265.03
2023-02-09T05:00:12.402Z,100269.28
2023-02-09T05:02:40.335Z,100261.59
2023-02-09T05:05:08.368Z,100257.22
2023-02-09T05:07:36.238Z,100256.47
2023-02-09T05:10:04.671Z,100247.09
2023-02-09T05:12:34.749Z,100236.75
2023-02-09T05:15:02.487Z,100235.50
2023-02-09T05:17:33.444Z,100246.44
2023-02-09T05:20:01.333Z,100239.69
2023-02-09T05:22:29.079Z,100244.00
2023-02-09T05:24:56.843Z,100240.94
2023-02-09T05:27:24.633Z,100247.84
2023-02-09T05:29:52.399Z,100235.97
2023-02-09T05:32:20.232Z,100240.34
2023-02-09T05:34:51.640Z,100228.47
2023-02-09T05:37:21.755Z,100233.78
2023-02-09T05:39:50.995Z,100239.84
2023-02-09T05:42:18.845Z,100230.50
2023-02-09T05:44:48.012Z,100235.78
2023-02-09T05:47:19.327Z,100236.53
2023-02-09T05:49:47.133Z,100235.41
2023-02-09T05:52:17.940Z,100241.41
2023-02-09T05:54:47.865Z,100233.59
2023-02-09T05:57:15.859Z,100240.72
2023-02-09T05:59:43.943Z,100233.03
2023-02-09T06:02:12.208Z,100232.28
2023-02-09T06:04:40.005Z,100229.78
2023-02-09T06:07:08.494Z,100239.22
2023-02-09T06:09:38.506Z,100238.44
2023-02-09T06:12:06.623Z,100241.06
2023-02-09T06:14:34.419Z,100247.88
2023-02-09T06:17:02.119Z,100251.13
2023-02-09T06:19:30.252Z,100244.28
2023-02-09T06:21:58.242Z,100242.63
2023-02-09T06:24:26.313Z,100245.97
2023-02-09T06:26:56.156Z,100259.88
2023-02-09T06:29:24.381Z,100261.75
2023-02-09T06:31:52.787Z,100258.38
2023-02-09T06:34:20.753Z,100268.75
2023-02-09T06:36:48.575Z,100273.94
2023-02-09T06:39:16.334Z,100275.31
2023-02-09T06:41:44.121Z,100284.06
2023-02-09T06:44:13.492Z,100287.56
2023-02-09T06:46:41.378Z,100296.88
2023-02-09T06:49:09.328Z,100290.28
2023-02-09T06:51:37.212Z,100295.66
2023-02-09T06:54:05.617Z,100299.16
2023-02-09T06:56:35.779Z,100303.56
2023-02-09T06:59:03.612Z,100303.69
2023-02-09T07:01:32.820Z,100304.47
2023-02-09T07:04:00.598Z,100299.34
2023-02-09T07:06:28.456Z,100304.34
2023-02-09T07:08:56.282Z,100304.63
2023-02-09T07:11:24.055Z,100304.00
2023-02-09T07:13:51.930Z,100308.41
2023-02-09T07:16:20.047Z,100312.00
2023-02-09T07:18:49.214Z,100317.25
2023-02-09T07:21:19.770Z,100317.41
2023-02-09T07:23:48.453Z,100314.03
2023-02-09T07:26:18.789Z,100312.44
2023-02-09T07:28:46.577Z,100321.16
2023-02-09T07:31:16.204Z,100316.81
2023-02-09T07:33:44.418Z,100319.59
2023-02-09T07:36:15.479Z,100317.09
2023-02-09T07:38:43.680Z,100323.19
2023-02-09T07:41:16.084Z,100311.09
2023-02-09T07:43:44.139Z,100310.22
2023-02-09T07:46:15.165Z,100312.84
2023-02-09T07:48:43.132Z,100319.72
2023-02-09T07:51:15.874Z,100310.22
2023-02-09T07:53:43.906Z,100317.97
2023-02-09T07:56:11.716Z,100310.19
2023-02-09T07:58:39.726Z,100310.09
2023-02-09T08:01:09.755Z,100306.63
2023-02-09T08:03:38.620Z,100307.56
2023-02-09T08:06:19.590Z,100310.09
2023-02-09T08:08:50.365Z,100303.88
2023-02-09T08:11:24.369Z,100304.66
2023-02-09T08:13:54.004Z,100307.94
2023-02-09T08:16:26.155Z,100318.13
2023-02-09T08:18:58.525Z,100316.69
2023-02-09T08:21:28.950Z,100322.63
2023-02-09T08:24:01.070Z,100319.66
2023-02-09T08:26:28.936Z,100308.91
2023-02-09T08:28:58.292Z,100318.84
2023-02-09T08:31:26.230Z,100310.75
2023-02-09T08:33:54.154Z,100316.94
2023-02-09T08:36:22.177Z,100309.50
2023-02-09T08:38:50.228Z,100302.72
2023-02-09T08:41:20.203Z,100306.75
2023-02-09T08:43:51.630Z,100310.34
2023-02-09T08:46:20.322Z,100304.97
2023-02-09T08:48:48.518Z,100311.28
2023-02-09T08:51:17.685Z,100310.16
2023-02-09T08:53:52.166Z,100313.56
2023-02-09T08:56:23.322Z,100306.06
2023-02-09T08:58:51.273Z,100311.81
2023-02-09T09:01:19.374Z,100321.72
2023-02-09T09:03:47.304Z,100316.63
2023-02-09T09:06:15.086Z,100315.91
2023-02-09T09:08:43.048Z,100310.44
2023-02-09T09:11:13.191Z,100317.50
2023-02-09T09:13:45.202Z,100309.41
2023-02-09T09:16:16.525Z,100299.19
2023-02-09T09:18:45.520Z,100309.22
2023-02-09T09:21:13.849Z,100314.25
2023-02-09T09:23:41.610Z,100306.34
2023-02-09T09:26:09.940Z,100311.84
2023-02-09T09:28:38.361Z,100317.56
2023-02-09T09:31:10.538Z,100322.34
2023-02-09T09:33:38.585Z,100330.47
2023-02-09T09:36:07.801Z,100326.16
2023-02-09T09:38:35.908Z,100322.13
2023-02-09T09:41:17.817Z,100326.31
2023-02-09T09:43:45.744Z,100328.47
2023-02-09T09:46:20.825Z,100321.38
2023-02-09T09:48:51.701Z,100330.41
2023-02-09T09:51:25.293Z,100337.41
2023-02-09T09:53:56.155Z,100342.88
2023-02-09T09:56:26.836Z,100330.31
2023-02-09T09:58:54.928Z,100342.94
2023-02-09T10:01:28.676Z,100335.63
2023-02-09T10:03:59.621Z,100338.69
2023-02-09T10:06:34.169Z,100335.81
2023-02-09T10:09:05.561Z,100347.63
2023-02-09T10:11:39.918Z,100339.72
2023-02-09T10:14:10.617Z,100335.31
2023-02-09T10:16:40.073Z,100333.31
2023-02-09T10:19:23.624Z,100339.06
2023-02-09T10:21:51.317Z,100331.81
2023-02-09T10:24:24.151Z,100339.56
2023-02-09T10:27:08.127Z,100335.84
2023-02-09T10:29:36.794Z,100334.06
2023-02-09T10:32:14.612Z,100333.91
2023-02-09T10:34:46.217Z,100331.91
2023-02-09T10:37:23.338Z,100326.56
2023-02-09T10:39:59.845Z,100327.72
2023-02-09T10:42:31.497Z,100332.66
2023-02-09T10:45:06.978Z,100336.84
2023-02-09T10:47:36.383Z,100323.28
2023-02-09T10:50:17.108Z,100328.00
2023-02-09T10:52:56.196Z,100317.88
2023-02-09T10:55:28.008Z,100317.41
2023-02-09T10:58:06.288Z,100313.94
2023-02-09T11:00:39.673Z,100316.59
2023-02-09T11:03:18.300Z,100312.84
2023-02-09T11:05:48.269Z,100314.34
2023-02-09T11:08:22.567Z,100300.47
2023-02-09T11:11:01.686Z,100301.88
2023-02-09T11:13:32.159Z,100303.81
2023-02-09T11:16:20.700Z,100297.19
2023-02-09T11:18:57.584Z,100302.38
2023-02-09T11:21:37.907Z,100299.50
2023-02-09T11:24:13.233Z,100295.63
2023-02-09T11:26:48.821Z,100286.81
2023-02-09T11:29:25.333Z,100286.50
2023-02-09T11:32:20.599Z,100274.50
2023-02-09T11:35:09.865Z,100275.16
2023-02-09T11:37:45.168Z,100274.31
2023-02-09T11:40:37.281Z,100260.63
2023-02-09T11:43:16.777Z,100250.06
2023-02-09T11:45:46.446Z,100240.59
2023-02-09T11:48:18.910Z,100249.22
2023-02-09T11:50:57.769Z,100256.03
2023-02-09T11:53:32.937Z,100245.28
2023-02-09T11:56:03.725Z,100248.03
2023-02-09T11:58:42.284Z,100247.34
2023-02-09T12:01:20.077Z,100247.75
2023-02-09T12:04:06.258Z,100244.41
2023-02-09T12:06:39.705Z,100227.13
2023-02-09T12:09:17.626Z,100218.50
2023-02-09T12:11:55.358Z,100213.16
2023-02-09T12:14:39.853Z,100221.28
2023-02-09T12:17:14.945Z,100212.34
2023-02-09T12:19:45.538Z,100209.81
2023-02-09T12:22:44.854Z,100215.75
2023-02-09T12:25:31.788Z,100212.09
2023-02-09T12:28:16.972Z,100217.00
2023-02-09T12:31:05.358Z,100207.84
2023-02-09T12:33:35.398Z,100216.38
2023-02-09T12:36:06.191Z,100221.56
2023-02-09T12:39:07.421Z,100208.66
2023-02-09T12:42:12.872Z,100214.03
2023-02-09T12:44:55.674Z,100198.41
2023-02-09T12:47:58.564Z,100212.19
2023-02-09T12:50:47.302Z,100209.97
2023-02-09T12:53:49.110Z,100203.00
2023-02-09T12:56:35.263Z,100201.91
2023-02-09T12:59:18.566Z,100196.97
2023-02-09T13:02:23.879Z,100203.38
2023-02-09T13:05:05.092Z,100189.47
2023-02-09T13:07:44.380Z,100194.38
2023-02-09T13:10:24.455Z,100195.16
2023-02-09T13:12:57.769Z,100196.97
2023-02-09T13:15:29.770Z,100210.59
2023-02-09T13:18:10.046Z,100210.53
2023-02-09T13:21:03.250Z,100207.66
2023-02-09T13:23:35.208Z,100201.16
2023-02-09T13:26:18.851Z,100208.38
2023-02-09T13:28:46.779Z,100202.31
2023-02-09T13:31:27.061Z,100220.22
2023-02-09T13:34:00.997Z,100206.81
2023-02-09T13:36:36.732Z,100219.59
2023-02-09T13:39:08.447Z,100217.16
2023-02-09T13:41:40.541Z,100219.94
2023-02-09T13:44:21.421Z,100215.03
2023-02-09T13:46:54.739Z,100219.66
2023-02-09T13:49:24.757Z,100225.03
2023-02-09T13:52:14.157Z,100221.91
2023-02-09T13:54:43.318Z,100220.69
2023-02-09T13:57:23.694Z,100209.25
2023-02-09T13:59:51.725Z,100209.16
2023-02-09T14:02:27.050Z,100200.81
2023-02-09T14:04:58.386Z,100205.97
2023-02-09T14:07:30.094Z,100208.78
2023-02-09T14:10:02.741Z,100210.63
2023-02-09T14:12:56.571Z,100210.13
2023-02-09T14:15:46.575Z,100212.13
2023-02-09T14:18:24.718Z,100213.69
2023-02-09T14:21:16.534Z,100236.16
2023-02-09T14:23:46.692Z,100227.94
2023-02-09T14:26:25.255Z,100238.28
2023-02-09T14:29:05.151Z,100234.75
2023-02-09T14:31:36.277Z,100237.09
2023-02-09T14:34:04.123Z,100241.50
2023-02-09T14:36:34.045Z,100232.88
2023-02-09T14:39:13.051Z,100241.63
2023-02-09T14:41:41.079Z,100238.09
2023-02-09T14:44:22.387Z,100238.44
2023-02-09T14:46:52.228Z,100242.09
2023-02-09T14:49:21.060Z,100241.94
2023-02-09T14:51:54.488Z,100245.44
2023-02-09T14:54:26.256Z,100244.63
2023-02-09T14:56:57.873Z,100242.19
2023-02-09T14:59:28.366Z,100249.66
2023-02-09T15:01:56.509Z,100246.63
2023-02-09T15:04:24.426Z,100250.34
2023-02-09T15:07:01.877Z,100256.00
2023-02-09T15:09:35.934Z,100257.28
2023-02-09T15:12:07.180Z,100252.63
2023-02-09T15:14:42.589Z,100258.03
2023-02-09T15:17:16.003Z,100250.75
2023-02-09T15:19:44.206Z,100253.63
2023-02-09T15:22:16.099Z,100256.97
2023-02-09T15:24:44.770Z,100262.09
2023-02-09T15:27:22.519Z,100256.88
2023-02-09T15:29:51.788Z,100254.41
2023-02-09T15:32:21.711Z,100259.75
2023-02-09T15:34:49.788Z,100262.44
2023-02-09T15:37:22.679Z,100270.66
2023-02-09T15:39:52.639Z,100268.53
2023-02-09T15:42:38.663Z,100269.28
2023-02-09T15:45:34.063Z,100268.19
2023-02-09T15:48:02.016Z,100264.47
2023-02-09T15:50:30.956Z,100275.19
2023-02-09T15:52:59.296Z,100271.47
2023-02-09T15:55:28.180Z,100279.69
2023-02-09T15:57:56.753Z,100286.53
2023-02-09T16:00:29.741Z,100294.47
2023-02-09T16:03:00.316Z,100296.56
2023-02-09T16:05:30.111Z,100276.19
2023-02-09T16:07:59.715Z,100276.69
2023-02-09T16:10:29.665Z,100284.72
2023-02-09T16:12:57.767Z,100289.53
2023-02-09T16:15:28.368Z,100295.22
2023-02-09T16:17:56.105Z,100293.84
2023-02-09T16:20:25.999Z,100290.78
2023-02-09T16:23:11.844Z,100297.63
2023-02-09T16:25:48.325Z,100300.25
2023-02-09T16:28:19.498Z,100300.75
2023-02-09T16:30:52.459Z,100307.19
2023-02-09T16:33:21.060Z,100308.91
2023-02-09T16:35:53.306Z,100312.03
2023-02-09T16:38:23.204Z,100314.72
2023-02-09T16:40:51.308Z,100314.72
2023-02-09T16:43:19.413Z,100330.22
2023-02-09T16:46:02.465Z,100323.97
2023-02-09T16:48:34.561Z,100327.91
2023-02-09T16:51:02.923Z,100327.00
2023-02-09T16:53:33.712Z,100327.03
2023-02-09T16:56:02.079Z,100334.34
2023-02-09T16:58:29.935Z,100338.63
2023-02-09T17:00:59.204Z,100337.34
2023-02-09T17:03:33.608Z,100340.41
2023-02-09T17:06:02.282Z,100338.44
2023-02-09T17:08:32.929Z,100347.47
2023-02-09T17:11:01.849Z,100351.97
2023-02-09T17:13:32.199Z,100359.41
2023-02-09T17:16:03.958Z,100360.09
2023-02-09T17:18:34.624Z,100363.97
2023-02-09T17:21:04.707Z,100362.13
2023-02-09T17:23:32.569Z,100364.59
2023-02-09T17:26:00.549Z,100367.03
2023-02-09T17:28:29.083Z,100362.69
2023-02-09T17:30:58.899Z,100368.72
2023-02-09T17:33:30.125Z,100364.28
2023-02-09T17:36:24.206Z,100370.13
2023-02-09T17:38:47.032Z,100370.41
2023-02-09T17:41:16.803Z,100365.03
2023-02-09T17:43:44.850Z,100378.75
2023-02-09T17:46:13.241Z,100372.63
2023-02-09T17:48:42.336Z,100369.94
2023-02-09T17:51:19.402Z,100374.25
2023-02-09T17:53:49.314Z,100369.91
2023-02-09T17:56:17.236Z,100370.00
2023-02-09T17:58:45.307Z,100373.56
2023-02-09T18:01:25.340Z,100375.03
2023-02-09T18:03:55.958Z,100370.06
2023-02-09T18:06:29.905Z,100378.59
2023-02-09T18:08:57.643Z,100383.22
2023-02-09T18:11:40.887Z,100382.41
2023-02-09T18:14:12.004Z,100380.56
2023-02-09T18:16:41.228Z,100379.53
2023-02-09T18:19:11.116Z,100383.00
2023-02-09T18:21:39.442Z,100392.13
2023-02-09T18:24:08.010Z,100395.56
2023-02-09T18:26:35.723Z,100394.47
2023-02-09T18:29:03.495Z,100399.34
2023-02-09T18:31:31.493Z,100400.91
2023-02-09T18:33:59.372Z,100408.09
2023-02-09T18:36:28.638Z,100408.16
2023-02-09T18:38:56.604Z,100409.94
2023-02-09T18:41:24.683Z,100417.63
2023-02-09T18:43:54.261Z,100414.88
2023-02-09T18:46:24.513Z,100421.06
2023-02-09T18:48:52.518Z,100421.25
2023-02-09T18:51:20.448Z,100432.59
2023-02-09T18:53:50.199Z,100431.75
2023-02-09T18:56:20.111Z,100430.03
2023-02-09T18:58:48.795Z,100432.63
2023-02-09T19:01:19.638Z,100437.84
2023-02-09T19:03:50.518Z,100443.03
2023-02-09T19:06:21.881Z,100437.88
2023-02-09T19:08:51.546Z,100448.63
2023-02-09T19:11:30.039Z,100450.16
2023-02-09T19:14:15.687Z,100452.06
2023-02-09T19:16:43.562Z,100453.81
2023-02-09T19:19:12.471Z,100466.00
2023-02-09T19:21:40.418Z,100458.22
2023-02-09T19:24:09.562Z,100463.44
2023-02-09T19:26:37.423Z,100461.56
2023-02-09T19:29:07.508Z,100466.75
2023-02-09T19:31:38.247Z,100463.53
2023-02-09T19:34:06.141Z,100460.91
2023-02-09T19:36:34.169Z,100463.53
2023-02-09T19:39:02.362Z,100465.28
2023-02-09T19:41:31.564Z,100469.66
2023-02-09T19:43:59.887Z,100468.81
2023-02-09T19:46:29.965Z,100461.97
2023-02-09T19:48:58.320Z,100455.22
2023-02-09T19:51:26.418Z,100461.41
2023-02-09T19:53:54.289Z,100459.63
2023-02-09T19:56:23.449Z,100469.97
2023-02-09T19:58:52.906Z,100466.50
2023-02-09T20:01:21.465Z,100465.56
2023-02-09T20:03:49.748Z,100468.16
2023-02-09T20:06:17.918Z,100467.31
2023-02-09T20:08:47.692Z,100466.41
2023-02-09T20:11:18.576Z,100471.59
2023-02-09T20:13:47.004Z,100469.91
2023-02-09T20:16:21.411Z,100474.25
2023-02-09T20:18:49.745Z,100464.75
2023-02-09T20:21:19.418Z,100471.66
2023-02-09T20:23:47.989Z,100478.63
2023-02-09T20:26:18.846Z,100475.94
2023-02-09T20:28:49.034Z,100476.88
2023-02-09T20:31:20.667Z,100475.19
2023-02-09T20:33:48.631Z,100482.31
2023-02-09T20:36:16.765Z,100472.81
2023-02-09T20:38:44.587Z,100464.94
2023-02-09T20:41:17.512Z,100473.59
2023-02-09T20:44:03.091Z,100484.03
2023-02-09T20:46:56.690Z,100489.22
2023-02-09T20:49:29.479Z,100492.63
2023-02-09T20:51:57.656Z,100496.00
2023-02-09T20:54:25.850Z,100503.00
2023-02-09T20:56:53.684Z,100504.75
2023-02-09T20:59:21.433Z,100509.97
2023-02-09T21:01:50.874Z,100513.44
2023-02-09T21:04:19.066Z,100519.53
2023-02-09T21:06:46.869Z,100512.47
2023-02-09T21:09:16.376Z,100507.25
2023-02-09T21:11:44.129Z,100505.63
2023-02-09T21:14:21.934Z,100510.81
2023-02-09T21:16:57.558Z,100518.66
2023-02-09T21:19:25.910Z,100515.19
2023-02-09T21:21:53.835Z,100510.88
2023-02-09T21:24:21.731Z,100514.38
2023-02-09T21:26:49.554Z,100518.72
2023-02-09T21:29:17.397Z,100523.09
2023-02-09T21:31:45.708Z,100530.88
2023-02-09T21:34:16.406Z,100526.53
2023-02-09T21:36:44.797Z,100524.81
2023-02-09T21:39:15.070Z,100530.88
2023-02-09T21:42:00.326Z,100535.19
2023-02-09T21:44:28.116Z,100541.25
2023-02-09T21:46:55.948Z,100534.34
2023-02-09T21:49:25.127Z,100534.34
2023-02-09T21:51:52.952Z,100542.16
2023-02-09T21:54:20.743Z,100548.19
2023-02-09T21:56:51.035Z,100544.75
2023-02-09T21:59:21.595Z,100548.19
2023-02-09T22:01:49.349Z,100549.03
2023-02-09T22:04:17.191Z,100551.66
2023-02-09T22:06:48.673Z,100557.72
2023-02-09T22:09:16.745Z,100565.53
2023-02-09T22:11:44.513Z,100565.50
2023-02-09T22:14:12.525Z,100565.53
2023-02-09T22:16:40.315Z,100557.72
2023-02-09T22:19:08.144Z,100568.97
2023-02-09T22:21:35.930Z,100567.25
2023-02-09T22:24:05.680Z,100567.25
2023-02-09T22:26:33.528Z,100565.53
2023-02-09T22:29:03.564Z,100575.94
2023-02-09T22:31:31.386Z,100574.16
2023-02-09T22:33:59.184Z,100576.75
2023-02-09T22:36:27.141Z,100577.59
2023-02-09T22:38:54.878Z,100582.81
2023-02-09T22:41:26.102Z,100581.94
2023-02-09T22:43:55.982Z,100584.50
2023-02-09T22:46:25.756Z,100586.31
2023-02-09T22:48:54.604Z,100596.66
2023-02-09T22:51:24.014Z,100589.69
2023-02-09T22:53:52.153Z,100593.13
2023-02-09T22:56:19.949Z,100594.81
2023-02-09T22:58:49.402Z,100601.63
2023-02-09T23:01:17.721Z,100597.38
2023-02-09T23:03:45.509Z,100594.81
2023-02-09T23:06:17.085Z,100597.34
2023-02-09T23:08:47.954Z,100592.84
2023-02-09T23:11:18.010Z,100601.44
2023-02-09T23:13:48.062Z,100598.91
2023-02-09T23:16:20.679Z,100599.84
2023-02-09T23:18:50.120Z,100606.81
2023-02-09T23:21:18.829Z,100613.78
2023-02-09T23:23:47.313Z,100606.84
2023-02-09T23:26:17.226Z,100611.22
2023-02-09T23:28:45.431Z,100604.41
2023-02-09T23:31:15.304Z,100609.56
2023-02-09T23:33:45.296Z,100606.97
2023-02-09T23:36:16.484Z,100607.88
2023-02-09T23:38:45.424Z,100606.72
2023-02-09T23:41:17.281Z,100609.28
2023-02-09T23:43:45.190Z,100616.28
2023-02-09T23:46:15.138Z,100612.91
2023-02-09T23:48:44.760Z,100619.03
2023-02-09T23:51:15.176Z,100614.75
2023-02-09T23:53:45.498Z,100619.91
2023-02-09T23:56:14.328Z,100612.94
2023-02-09T23:58:44.816Z,100611.13
